Time,TemperatureF,DewpointF,PressureIn,WindDirection,WindDirectionDegrees,WindSpeedMPH,WindSpeedGustMPH,Humidity,HourlyPrecipIn,Conditions,Clouds,dailyrainin,SoftwareType,DateUTC
2013-03-23 00:02:00,46.0,35.0,-100.00,WNW,288,9.0,11.0,65,-99.99,,,-99.99,,2013-03-23 07:02:00,
2013-03-23 00:12:00,46.0,35.0,-100.00,WNW,289,7.0,10.0,64,-99.99,,,-99.99,,2013-03-23 07:12:00,
2013-03-23 00:22:00,45.0,34.0,-100.00,WSW,244,3.0,6.0,65,-99.99,,,-99.99,,2013-03-23 07:22:00,
2013-03-23 00:32:00,47.0,31.0,-100.00,West,276,6.0,10.0,53,-99.99,,,-99.99,,2013-03-23 07:32:00,
2013-03-23 00:42:00,47.0,30.0,-100.00,West,273,7.0,9.0,52,-99.99,,,-99.99,,2013-03-23 07:42:00,
2013-03-23 00:52:00,46.0,31.0,-100.00,West,269,6.0,8.0,56,-99.99,,,-99.99,,2013-03-23 07:52:00,
2013-03-23 01:02:00,46.0,32.0,-100.00,West,266,8.0,10.0,57,-99.99,,,-99.99,,2013-03-23 08:02:00,
2013-03-23 01:12:00,46.0,32.0,-100.00,West,267,9.0,10.0,57,-99.99,,,-99.99,,2013-03-23 08:12:00,
2013-03-23 01:22:00,46.0,33.0,-100.00,West,267,7.0,9.0,60,-99.99,,,-99.99,,2013-03-23 08:22:00,
2013-03-23 01:31:00,46.0,33.0,-100.00,West,267,7.0,9.0,60,-99.99,,,-99.99,,2013-03-23 08:31:00,
2013-03-23 01:42:00,46.0,31.0,-100.00,West,278,6.0,8.0,55,-99.99,,,-99.99,,2013-03-23 08:42:00,
2013-03-23 01:52:00,46.0,29.0,-100.00,WNW,284,6.0,7.0,52,-99.99,,,-99.99,,2013-03-23 08:52:00,
2013-03-23 02:02:00,47.0,27.0,-100.00,WNW,292,6.0,8.0,46,-99.99,,,-99.99,,2013-03-23 09:02:00,
2013-03-23 02:12:00,46.0,28.0,-100.00,WNW,288,7.0,12.0,49,-99.99,,,-99.99,,2013-03-23 09:12:00,
2013-03-23 02:22:00,47.0,25.0,-100.00,WNW,298,9.0,13.0,42,-99.99,,,-99.99,,2013-03-23 09:22:00,
2013-03-23 02:32:00,49.0,19.0,-100.00,NW,306,11.0,17.0,30,-99.99,,,-99.99,,2013-03-23 09:32:00,
2013-03-23 02:42:00,51.0,17.0,-100.00,NW,307,10.0,16.0,26,-99.99,,,-99.99,,2013-03-23 09:42:00,
2013-03-23 02:52:00,51.0,15.0,-100.00,NW,310,12.0,19.0,23,-99.99,,,-99.99,,2013-03-23 09:52:00,
2013-03-23 03:02:00,52.0,14.0,-100.00,NW,311,11.0,17.0,22,-99.99,,,-99.99,,2013-03-23 10:02:00,
2013-03-23 03:12:00,52.0,13.0,-100.00,NW,321,9.0,11.0,21,-99.99,,,-99.99,,2013-03-23 10:12:00,
2013-03-23 03:23:00,53.0,9.0,-100.00,NNW,328,10.0,13.0,17,-99.99,,,-99.99,,2013-03-23 10:23:00,
2013-03-23 03:33:00,53.0,5.0,-100.00,NNW,330,9.0,13.0,14,-99.99,,,-99.99,,2013-03-23 10:33:00,
2013-03-23 03:42:00,54.0,4.0,-100.00,NW,321,9.0,12.0,13,-99.99,,,-99.99,,2013-03-23 10:42:00,
2013-03-23 03:52:00,53.0,4.0,-100.00,WNW,300,7.0,12.0,13,-99.99,,,-99.99,,2013-03-23 10:52:00,
2013-03-23 04:02:00,52.0,6.0,-100.00,WNW,297,7.0,8.0,15,-99.99,,,-99.99,,2013-03-23 11:02:00,
2013-03-23 04:12:00,52.0,7.0,-100.00,WNW,286,8.0,11.0,16,-99.99,,,-99.99,,2013-03-23 11:12:00,
2013-03-23 04:22:00,51.0,8.0,-100.00,West,276,6.0,9.0,17,-99.99,,,-99.99,,2013-03-23 11:22:00,
2013-03-23 04:32:00,51.0,6.0,-100.00,WNW,298,3.0,7.0,16,-99.99,,,-99.99,,2013-03-23 11:32:00,
2013-03-23 04:42:00,52.0,7.0,-100.00,NNW,333,6.0,7.0,16,-99.99,,,-99.99,,2013-03-23 11:42:00,
2013-03-23 04:51:00,52.0,7.0,-100.00,West,276,6.0,8.0,16,-99.99,,,-99.99,,2013-03-23 11:51:00,
2013-03-23 05:02:00,52.0,6.0,-100.00,NW,319,4.0,9.0,15,-99.99,,,-99.99,,2013-03-23 12:02:00,
2013-03-23 05:22:00,52.0,4.0,-100.00,NW,322,5.0,7.0,14,-99.99,,,-99.99,,2013-03-23 12:22:00,
2013-03-23 05:32:00,53.0,2.0,-100.00,NW,326,7.0,10.0,12,-99.99,,,-99.99,,2013-03-23 12:32:00,
2013-03-23 05:42:00,53.0,2.0,-100.00,NW,312,7.0,11.0,12,-99.99,,,-99.99,,2013-03-23 12:42:00,
2013-03-23 05:52:00,52.0,3.0,-100.00,NW,314,5.0,6.0,13,-99.99,,,-99.99,,2013-03-23 12:52:00,
2013-03-23 06:02:00,51.0,2.0,-100.00,NNW,334,6.0,9.0,13,-99.99,,,-99.99,,2013-03-23 13:02:00,
2013-03-23 06:11:00,51.0,0.0,-100.00,NW,305,3.0,5.0,12,-99.99,,,-99.99,,2013-03-23 13:11:00,
2013-03-23 06:22:00,49.0,11.0,-100.00,SSW,203,3.0,4.0,21,-99.99,,,-99.99,,2013-03-23 13:22:00,
2013-03-23 06:32:00,49.0,15.0,-100.00,South,188,2.0,3.0,25,-99.99,,,-99.99,,2013-03-23 13:32:00,
2013-03-23 06:42:00,51.0,2.0,-100.00,NW,313,4.0,5.0,13,-99.99,,,-99.99,,2013-03-23 13:42:00,
2013-03-23 06:52:00,52.0,-1.0,-100.00,North,350,4.0,6.0,11,-99.99,,,-99.99,,2013-03-23 13:52:00,
2013-03-23 07:02:00,54.0,-1.0,-100.00,North,358,5.0,7.0,10,-99.99,,,-99.99,,2013-03-23 14:02:00,
2013-03-23 07:12:00,52.0,-1.0,-100.00,ENE,71,5.0,8.0,11,-99.99,,,-99.99,,2013-03-23 14:12:00,
2013-03-23 07:22:00,53.0,-2.0,-100.00,ENE,60,8.0,10.0,10,-99.99,,,-99.99,,2013-03-23 14:22:00,
2013-03-23 07:32:00,52.0,-3.0,-100.00,NE,38,10.0,12.0,10,-99.99,,,-99.99,,2013-03-23 14:32:00,
2013-03-23 07:42:00,53.0,2.0,-100.00,NNE,27,9.0,12.0,12,-99.99,,,-99.99,,2013-03-23 14:42:00,
2013-03-23 08:02:00,53.0,9.0,-100.00,NNE,33,9.0,13.0,17,-99.99,,,-99.99,,2013-03-23 15:02:00,
2013-03-23 08:11:00,53.0,12.0,-100.00,NE,34,8.0,12.0,19,-99.99,,,-99.99,,2013-03-23 15:11:00,
2013-03-23 08:22:00,54.0,10.0,-100.00,NE,47,9.0,15.0,17,-99.99,,,-99.99,,2013-03-23 15:22:00,
2013-03-23 08:33:00,55.0,8.0,-100.00,ENE,61,12.0,17.0,15,-99.99,,,-99.99,,2013-03-23 15:33:00,
2013-03-23 08:52:00,56.0,14.0,-100.00,ENE,64,12.0,19.0,19,-99.99,,,-99.99,,2013-03-23 15:52:00,
2013-03-23 09:03:00,57.0,15.0,-100.00,ENE,66,14.0,22.0,19,-99.99,,,-99.99,,2013-03-23 16:03:00,
2013-03-23 09:12:00,57.0,14.0,-100.00,ENE,64,14.0,23.0,18,-99.99,,,-99.99,,2013-03-23 16:12:00,
2013-03-23 09:22:00,57.0,14.0,-100.00,ENE,68,14.0,22.0,18,-99.99,,,-99.99,,2013-03-23 16:22:00,
2013-03-23 09:32:00,57.0,15.0,-100.00,ENE,65,14.0,23.0,19,-99.99,,,-99.99,,2013-03-23 16:32:00,
2013-03-23 09:42:00,57.0,14.0,-100.00,NE,56,19.0,25.0,18,-99.99,,,-99.99,,2013-03-23 16:42:00,
2013-03-23 09:52:00,57.0,14.0,-100.00,NE,55,19.0,24.0,18,-99.99,,,-99.99,,2013-03-23 16:52:00,
2013-03-23 10:02:00,57.0,13.0,-100.00,NE,54,19.0,29.0,17,-99.99,,,-99.99,,2013-03-23 17:02:00,
2013-03-23 10:11:00,57.0,13.0,-100.00,NE,53,19.0,29.0,17,-99.99,,,-99.99,,2013-03-23 17:11:00,
2013-03-23 10:22:00,57.0,11.0,-100.00,NE,48,20.0,31.0,16,-99.99,,,-99.99,,2013-03-23 17:22:00,
2013-03-23 10:32:00,57.0,11.0,-100.00,NE,49,21.0,29.0,16,-99.99,,,-99.99,,2013-03-23 17:32:00,
2013-03-23 10:42:00,57.0,10.0,-100.00,NE,50,22.0,30.0,15,-99.99,,,-99.99,,2013-03-23 17:42:00,
2013-03-23 10:52:00,57.0,11.0,-100.00,NE,47,20.0,30.0,16,-99.99,,,-99.99,,2013-03-23 17:52:00,
2013-03-23 11:02:00,57.0,11.0,-100.00,NE,47,20.0,30.0,16,-99.99,,,-99.99,,2013-03-23 18:02:00,
2013-03-23 11:12:00,57.0,8.0,-100.00,NE,46,21.0,30.0,14,-99.99,,,-99.99,,2013-03-23 18:12:00,
2013-03-23 11:22:00,57.0,8.0,-100.00,NE,45,22.0,31.0,14,-99.99,,,-99.99,,2013-03-23 18:22:00,
2013-03-23 11:32:00,58.0,11.0,-100.00,NE,47,22.0,29.0,15,-99.99,,,-99.99,,2013-03-23 18:32:00,
2013-03-23 11:42:00,57.0,10.0,-100.00,NE,49,23.0,32.0,15,-99.99,,,-99.99,,2013-03-23 18:42:00,
2013-03-23 11:52:00,58.0,11.0,-100.00,NE,46,19.0,29.0,15,-99.99,,,-99.99,,2013-03-23 18:52:00,
2013-03-23 12:02:00,58.0,12.0,-100.00,NE,53,20.0,31.0,16,-99.99,,,-99.99,,2013-03-23 19:02:00,
2013-03-23 12:12:00,58.0,13.0,-100.00,NE,56,20.0,28.0,17,-99.99,,,-99.99,,2013-03-23 19:12:00,
2013-03-23 12:22:00,58.0,15.0,-100.00,NE,56,19.0,27.0,18,-99.99,,,-99.99,,2013-03-23 19:22:00,
2013-03-23 12:32:00,59.0,18.0,-100.00,NE,55,17.0,26.0,20,-99.99,,,-99.99,,2013-03-23 19:32:00,
2013-03-23 12:42:00,59.0,20.0,-100.00,NE,55,19.0,26.0,22,-99.99,,,-99.99,,2013-03-23 19:42:00,
2013-03-23 12:52:00,59.0,20.0,-100.00,ENE,63,19.0,26.0,22,-99.99,,,-99.99,,2013-03-23 19:52:00,
2013-03-23 13:02:00,59.0,21.0,-100.00,ENE,62,19.0,26.0,23,-99.99,,,-99.99,,2013-03-23 20:02:00,
2013-03-23 13:12:00,59.0,20.0,-100.00,ENE,68,19.0,26.0,22,-99.99,,,-99.99,,2013-03-23 20:12:00,
2013-03-23 13:22:00,59.0,19.0,-100.00,ENE,68,18.0,26.0,21,-99.99,,,-99.99,,2013-03-23 20:22:00,
2013-03-23 13:32:00,59.0,18.0,-100.00,ENE,60,17.0,24.0,20,-99.99,,,-99.99,,2013-03-23 20:32:00,
2013-03-23 13:42:00,59.0,17.0,-100.00,ENE,65,17.0,23.0,19,-99.99,,,-99.99,,2013-03-23 20:42:00,
2013-03-23 13:52:00,58.0,16.0,-100.00,ENE,64,19.0,26.0,19,-99.99,,,-99.99,,2013-03-23 20:52:00,
2013-03-23 14:02:00,58.0,16.0,-100.00,ENE,64,19.0,26.0,19,-99.99,,,-99.99,,2013-03-23 21:02:00,
2013-03-23 14:12:00,59.0,17.0,-100.00,ENE,62,16.0,23.0,19,-99.99,,,-99.99,,2013-03-23 21:12:00,
2013-03-23 14:22:00,60.0,18.0,-100.00,ENE,63,16.0,22.0,19,-99.99,,,-99.99,,2013-03-23 21:22:00,
2013-03-23 14:32:00,60.0,18.0,-100.00,ENE,66,16.0,23.0,19,-99.99,,,-99.99,,2013-03-23 21:32:00,
2013-03-23 14:43:00,60.0,18.0,-100.00,ENE,66,16.0,23.0,19,-99.99,,,-99.99,,2013-03-23 21:43:00,
2013-03-23 14:53:00,60.0,18.0,-100.00,ENE,67,15.0,21.0,19,-99.99,,,-99.99,,2013-03-23 21:53:00,
2013-03-23 15:02:00,60.0,16.0,-100.00,ENE,68,15.0,21.0,18,-99.99,,,-99.99,,2013-03-23 22:02:00,
2013-03-23 15:12:00,61.0,17.0,-100.00,ENE,68,14.0,20.0,18,-99.99,,,-99.99,,2013-03-23 22:12:00,
2013-03-23 15:23:00,60.0,15.0,-100.00,ENE,65,15.0,20.0,17,-99.99,,,-99.99,,2013-03-23 22:23:00,
2013-03-23 15:32:00,60.0,15.0,-100.00,ENE,71,13.0,19.0,17,-99.99,,,-99.99,,2013-03-23 22:32:00,
2013-03-23 15:42:00,61.0,16.0,-100.00,ENE,66,14.0,21.0,17,-99.99,,,-99.99,,2013-03-23 22:42:00,
2013-03-23 15:52:00,61.0,16.0,-100.00,ENE,77,12.0,19.0,17,-99.99,,,-99.99,,2013-03-23 22:52:00,
2013-03-23 16:02:00,61.0,17.0,-100.00,East,80,12.0,18.0,18,-99.99,,,-99.99,,2013-03-23 23:02:00,
2013-03-23 16:12:00,62.0,18.0,-100.00,ENE,63,11.0,16.0,18,-99.99,,,-99.99,,2013-03-23 23:12:00,
2013-03-23 16:22:00,61.0,17.0,-100.00,ENE,58,11.0,15.0,18,-99.99,,,-99.99,,2013-03-23 23:22:00,
2013-03-23 16:32:00,61.0,17.0,-100.00,ENE,62,10.0,18.0,18,-99.99,,,-99.99,,2013-03-23 23:32:00,
2013-03-23 16:42:00,61.0,17.0,-100.00,ENE,64,11.0,16.0,18,-99.99,,,-99.99,,2013-03-23 23:42:00,
2013-03-23 16:52:00,61.0,17.0,-100.00,NE,52,10.0,17.0,18,-99.99,,,-99.99,,2013-03-23 23:52:00,
2013-03-23 17:01:00,61.0,17.0,-100.00,ENE,62,11.0,17.0,18,-99.99,,,-99.99,,2013-03-24 00:01:00,
2013-03-23 17:12:00,61.0,17.0,-100.00,NE,52,10.0,15.0,18,-99.99,,,-99.99,,2013-03-24 00:12:00,
2013-03-23 17:22:00,61.0,17.0,-100.00,ENE,69,9.0,14.0,18,-99.99,,,-99.99,,2013-03-24 00:22:00,
2013-03-23 17:32:00,61.0,17.0,-100.00,ENE,58,8.0,13.0,18,-99.99,,,-99.99,,2013-03-24 00:32:00,
2013-03-23 17:42:00,61.0,17.0,-100.00,ENE,60,10.0,14.0,18,-99.99,,,-99.99,,2013-03-24 00:42:00,
2013-03-23 17:52:00,61.0,17.0,-100.00,ENE,60,9.0,14.0,18,-99.99,,,-99.99,,2013-03-24 00:52:00,
2013-03-23 18:02:00,60.0,16.0,-100.00,ENE,62,9.0,12.0,18,-99.99,,,-99.99,,2013-03-24 01:02:00,
2013-03-23 18:12:00,60.0,16.0,-100.00,NE,55,9.0,12.0,18,-99.99,,,-99.99,,2013-03-24 01:12:00,
2013-03-23 18:22:00,60.0,16.0,-100.00,ENE,65,8.0,11.0,18,-99.99,,,-99.99,,2013-03-24 01:22:00,
2013-03-23 18:32:00,60.0,16.0,-100.00,ENE,71,7.0,9.0,18,-99.99,,,-99.99,,2013-03-24 01:32:00,
2013-03-23 18:42:00,59.0,16.0,-100.00,ENE,58,8.0,11.0,18,-99.99,,,-99.99,,2013-03-24 01:42:00,
2013-03-23 18:52:00,58.0,15.0,-100.00,ENE,63,9.0,13.0,18,-99.99,,,-99.99,,2013-03-24 01:52:00,
2013-03-23 19:02:00,57.0,14.0,-100.00,ENE,60,8.0,12.0,18,-99.99,,,-99.99,,2013-03-24 02:02:00,
2013-03-23 19:12:00,56.0,14.0,-100.00,ENE,64,8.0,11.0,19,-99.99,,,-99.99,,2013-03-24 02:12:00,
2013-03-23 19:21:00,56.0,14.0,-100.00,ENE,58,8.0,11.0,19,-99.99,,,-99.99,,2013-03-24 02:21:00,
2013-03-23 19:32:00,55.0,14.0,-100.00,NE,52,8.0,11.0,19,-99.99,,,-99.99,,2013-03-24 02:32:00,
2013-03-23 19:42:00,54.0,13.0,-100.00,NE,53,7.0,11.0,19,-99.99,,,-99.99,,2013-03-24 02:42:00,
2013-03-23 19:52:00,54.0,13.0,-100.00,NE,49,7.0,9.0,19,-99.99,,,-99.99,,2013-03-24 02:52:00,
2013-03-23 20:02:00,54.0,13.0,-100.00,NE,52,8.0,10.0,19,-99.99,,,-99.99,,2013-03-24 03:02:00,
2013-03-23 20:12:00,54.0,13.0,-100.00,NE,53,8.0,10.0,19,-99.99,,,-99.99,,2013-03-24 03:12:00,
2013-03-23 20:22:00,54.0,13.0,-100.00,NE,49,7.0,10.0,19,-99.99,,,-99.99,,2013-03-24 03:22:00,
2013-03-23 20:32:00,53.0,12.0,-100.00,NE,47,7.0,8.0,19,-99.99,,,-99.99,,2013-03-24 03:32:00,
2013-03-23 20:42:00,53.0,12.0,-100.00,NE,44,6.0,8.0,19,-99.99,,,-99.99,,2013-03-24 03:42:00,
2013-03-23 20:52:00,55.0,14.0,-100.00,NE,40,6.0,7.0,19,-99.99,,,-99.99,,2013-03-24 03:52:00,
2013-03-23 21:02:00,55.0,12.0,-100.00,NE,43,5.0,6.0,18,-99.99,,,-99.99,,2013-03-24 04:02:00,
2013-03-23 21:12:00,56.0,13.0,-100.00,NE,54,4.0,5.0,18,-99.99,,,-99.99,,2013-03-24 04:12:00,
2013-03-23 21:22:00,55.0,14.0,-100.00,SSE,160,1.0,3.0,19,-99.99,,,-99.99,,2013-03-24 04:22:00,
2013-03-23 21:32:00,55.0,14.0,-100.00,SW,225,2.0,3.0,19,-99.99,,,-99.99,,2013-03-24 04:32:00,
2013-03-23 21:42:00,56.0,14.0,-100.00,NW,305,2.0,2.0,19,-99.99,,,-99.99,,2013-03-24 04:42:00,
2013-03-23 21:52:00,55.0,12.0,-100.00,North,354,2.0,4.0,18,-99.99,,,-99.99,,2013-03-24 04:52:00,
2013-03-23 22:02:00,56.0,13.0,-100.00,North,10,4.0,5.0,18,-99.99,,,-99.99,,2013-03-24 05:02:00,
2013-03-23 22:12:00,55.0,14.0,-100.00,NNE,19,4.0,4.0,19,-99.99,,,-99.99,,2013-03-24 05:12:00,
2013-03-23 22:22:00,55.0,15.0,-100.00,NNE,26,3.0,3.0,20,-99.99,,,-99.99,,2013-03-24 05:22:00,
2013-03-23 22:32:00,55.0,16.0,-100.00,NE,34,1.0,2.0,21,-99.99,,,-99.99,,2013-03-24 05:32:00,
2013-03-23 22:42:00,55.0,16.0,-100.00,NE,50,1.0,1.0,21,-99.99,,,-99.99,,2013-03-24 05:42:00,
2013-03-23 22:51:00,55.0,17.0,-100.00,NNE,13,2.0,3.0,22,-99.99,,,-99.99,,2013-03-24 05:51:00,
2013-03-23 23:02:00,55.0,23.0,-100.00,North,4,2.0,3.0,28,-99.99,,,-99.99,,2013-03-24 06:02:00,
2013-03-23 23:12:00,55.0,23.0,-100.00,NNE,17,1.0,2.0,29,-99.99,,,-99.99,,2013-03-24 06:12:00,
2013-03-23 23:22:00,55.0,24.0,-100.00,ESE,122,1.0,2.0,30,-99.99,,,-99.99,,2013-03-24 06:22:00,
2013-03-23 23:32:00,54.0,20.0,-100.00,SSE,158,2.0,3.0,26,-99.99,,,-99.99,,2013-03-24 06:32:00,
2013-03-23 23:42:00,55.0,23.0,-100.00,South,176,2.0,2.0,28,-99.99,,,-99.99,,2013-03-24 06:42:00,
2013-03-23 23:52:00,55.0,24.0,-100.00,SSW,203,2.0,2.0,30,-99.99,,,-99.99,,2013-03-24 06:52:00,